Live WebCam Live WebCam



No particular awareness of the weather is required.    There are no Weather-warnings

Nearby METAR Reports

  
ENBR - Bergen/Flesland, Norway
Distance from station: E 6km
Updated: 16-11-2018 10:20
Mostly Cloudy
Mostly Cloudy  
 Wind from S
Wind: S 28 km/h
Temperature:  11°C
Dew Point:  8°C
Humidity:  82%
Barometer:  1028 hPa
Clouds:  Mostly Cloudy
Visibility:  10 km
Cloud details:  Mostly Cloudy 396 m
2018/11/16 09:20 ENBR 160920Z 18015KT 9999 BKN013 11/08 Q1028 TEMPO BKN018 RMK WIND 1200FT 16025G35KT
ENSO - Stord/Soerstokke, Norway
Distance from station: SSE 56km
Updated: 16-11-2018 10:20
Mostly Cloudy
Mostly Cloudy  
 Wind from SSE
Wind: SSE 15 km/h
Temperature:  11°C
Dew Point:  6°C
Humidity:  72%
Barometer:  1029 hPa
Clouds:  Mostly Cloudy
Visibility:  10 km
Cloud details:  Mostly Cloudy 549 m
2018/11/16 09:20 ENSO 160920Z 15008KT 9999 BKN018 11/06 Q1029
ENQA - Troll-A Heli, Norway
Distance from station: WNW 87km
Updated: 16-11-2018 10:20
Mist, Overcast
Mist, Overcast  
 Wind from S
Wind: S 52 km/h
Temperature:  10°C
Wind Chill:  6°C
Dew Point:  9°C
Humidity:  94%
Barometer:  1026 hPa
Summary:  Mist
Clouds:  Overcast
Visibility:  8 miles
Cloud details:  Few Clouds 213 m
Overcast 488 m
2018/11/16 09:20 ENQA 160920Z AUTO 19028KT 4900NDV BR FEW007/// OVC016/// 10/09 Q1026 W08/S5
ENHD - Haugesund/Karmoy, Norway
Distance from station: S 103km
Updated: 16-11-2018 10:20
Mostly Cloudy
Mostly Cloudy  
 Wind from SSE
Wind: SSE 26 km/h
Temperature:  10°C
Wind Chill:  7°C
Dew Point:  6°C
Humidity:  76%
Barometer:  1029 hPa
Clouds:  Mostly Cloudy
Visibility:  10 km
Cloud details:  Mostly Cloudy 396 m
2018/11/16 09:20 ENHD 160920Z 15014KT 9999 BKN013 10/06 Q1029
ENQC - Troll-C Heli, Norway
Distance from station: NW 106km
Updated: 16-11-2018 10:20
Overcast
Overcast  
 Wind from S
Wind: S 44 km/h
Temperature:  10°C
Wind Chill:  6°C
Dew Point:  9°C
Humidity:  94%
Barometer:  1025 hPa
Clouds:  Overcast
Visibility:  8 miles
Cloud details:  Overcast 213 m
2018/11/16 09:20 ENQC 160920Z AUTO 19024KT 5000NDV OVC007/// 10/09 Q1025 W///S5
ENOA - Oseberg, Norway
Distance from station: WNW 128km
Updated: 16-11-2018 10:20
Mist, Overcast
Mist, Overcast  
 Wind from S
Wind: S 48 km/h
Temperature:  10°C
Wind Chill:  6°C
Dew Point:  9°C
Humidity:  94%
Barometer:  1026 hPa
Summary:  Mist
Clouds:  Overcast
Visibility:  3 km
Cloud details:  Overcast 152 m
2018/11/16 09:20 ENOA 160920Z 19026KT 2500 BR OVC005 10/09 Q1026 W///S5
ENBL - Forde/Bringeland, Norway
Distance from station: NNE 130km
Updated: 16-11-2018 09:50
Light Rain Showers, Mostly Cloudy
Light Rain Showers, Mostly Cloudy  
 Wind from SSW
Wind: SSW 26 km/h
Temperature:  9°C
Wind Chill:  6°C
Dew Point:  8°C
Humidity:  94%
Barometer:  1026 hPa
Summary:  Light Rain Showers
Clouds:  Mostly Cloudy
Visibility:  10 km
Cloud details:  Mostly Cloudy 457 m
2018/11/16 08:50 ENBL 160850Z 21014KT 9999 -SHRA BKN015 09/08 Q1026
ENFL - Floro, Norway
Distance from station: N 144km
Updated: 16-11-2018 10:20
Light drizzle, Mist, Mostly Cloudy
Light drizzle, Mist, Mostly Cloudy  
 Wind from S
Wind: S 44 km/h
Temperature:  10°C
Wind Chill:  6°C
Dew Point:  9°C
Humidity:  94%
Barometer:  1026 hPa
Summary:  Light drizzle, Mist
Clouds:  Mostly Cloudy
Visibility:  5 km
Cloud details:  Few Clouds 152 m
Partly Cloudy 213 m
Mostly Cloudy 305 m
2018/11/16 09:20 ENFL 160920Z 19024KT 5000 -DZ BR FEW005 SCT007 BKN010 10/09 Q1026
ENSG - Sogndal/Haukasen, Norway
Distance from station: NE 145km
Updated: 16-11-2018 10:20
Partly Cloudy
Partly Cloudy  
 Wind from varies
Wind: varies 7 km/h
Temperature:  8°C
Wind Chill:  7°C
Dew Point:  4°C
Humidity:  76%
Barometer:  1027 hPa
Clouds:  Partly Cloudy
Visibility:  10 km
Cloud details:  Partly Cloudy 1219 m
2018/11/16 09:20 ENSG 160920Z VRB04KT 9999 SCT040 08/04 Q1027 RMK WIND 3806FT 20022KT
ENZV - Stavanger/Sola(A, Norway
Distance from station: S 159km
Updated: 16-11-2018 10:20
Mostly Cloudy
Mostly Cloudy  
 Wind from SE
Wind: SE 17 km/h
Temperature:  10°C
Wind Chill:  8°C
Dew Point:  4°C
Humidity:  67%
Barometer:  1029 hPa
Clouds:  Mostly Cloudy
Visibility:  10 km
Cloud details:  Mostly Cloudy 549 m
2018/11/16 09:20 ENZV 160920Z 14009KT 9999 BKN018 10/04 Q1029 NOSIG
ENHM - Heimdal Oilp, Norway
Distance from station: WSW 179km
Updated: 16-11-2018 10:20
Overcast
Overcast  
 Wind from S
Wind: S 35 km/h
Temperature:  10°C
Wind Chill:  6°C
Dew Point:  9°C
Humidity:  94%
Barometer:  1025 hPa
Clouds:  Overcast
Visibility:  5 km
Cloud details:  Overcast 244 m
2018/11/16 09:20 ENHM 160920Z 18019KT 5000 OVC008 10/09 Q1025 W10/S4
ENSD - Sandane/Anda, Norway
Distance from station: NNE 180km
Updated: 16-11-2018 10:20
Light rain, Mostly Cloudy
Light rain, Mostly Cloudy  
 Wind from varies
Wind: varies 11 km/h
Temperature:  13°C
Dew Point:  7°C
Humidity:  67%
Barometer:  1025 hPa
Summary:  Light Rain
Clouds:  Mostly Cloudy
Visibility:  10 km
Cloud details:  Few Clouds 762 m
Partly Cloudy 914 m
Mostly Cloudy 1128 m
2018/11/16 09:20 ENSD 160920Z VRB06KT 9999 -RA FEW025 SCT030 BKN037 13/07 Q1025 RMK WIND 1138FT 20007G17KT

Script developed by  Saratoga-weather.org Adapted for the template by  Weerstation Leuven